sensor_id;sensor_type;location;lat;lon;timestamp;pressure;altitude;pressure_sealevel;temperature;humidity
4044;BME280;2036;51.578;7.108;2022-08-19T00:01:31;100546.63;;;19.22;100.00
4044;BME280;2036;51.578;7.108;2022-08-19T00:04:01;100554.63;;;19.13;100.00
4044;BME280;2036;51.578;7.108;2022-08-19T00:06:28;100554.97;;;19.10;100.00
4044;BME280;2036;51.578;7.108;2022-08-19T00:08:55;100546.97;;;19.10;100.00
4044;BME280;2036;51.578;7.108;2022-08-19T00:11:22;100557.63;;;19.10;100.00
4044;BME280;2036;51.578;7.108;2022-08-19T00:13:48;100558.31;;;19.04;100.00
4044;BME280;2036;51.578;7.108;2022-08-19T00:16:16;100561.66;;;18.98;100.00
4044;BME280;2036;51.578;7.108;2022-08-19T00:18:45;100561.84;;;18.97;100.00
4044;BME280;2036;51.578;7.108;2022-08-19T00:21:10;100569.63;;;18.98;100.00
4044;BME280;2036;51.578;7.108;2022-08-19T00:23:36;100573.50;;;18.96;100.00
4044;BME280;2036;51.578;7.108;2022-08-19T00:26:04;100566.63;;;19.01;100.00
4044;BME280;2036;51.578;7.108;2022-08-19T00:28:31;100556.34;;;18.98;100.00
4044;BME280;2036;51.578;7.108;2022-08-19T00:30:57;100565.34;;;18.97;100.00
4044;BME280;2036;51.578;7.108;2022-08-19T00:33:23;100558.34;;;18.96;100.00
4044;BME280;2036;51.578;7.108;2022-08-19T00:35:48;100557.88;;;18.93;100.00
4044;BME280;2036;51.578;7.108;2022-08-19T00:38:14;100557.03;;;18.92;100.00
4044;BME280;2036;51.578;7.108;2022-08-19T00:40:43;100550.88;;;18.92;100.00
4044;BME280;2036;51.578;7.108;2022-08-19T00:43:13;100557.72;;;18.86;100.00
4044;BME280;2036;51.578;7.108;2022-08-19T00:45:39;100551.72;;;18.84;100.00
4044;BME280;2036;51.578;7.108;2022-08-19T00:48:08;100551.25;;;18.81;100.00
4044;BME280;2036;51.578;7.108;2022-08-19T00:50:35;100549.44;;;18.73;100.00
4044;BME280;2036;51.578;7.108;2022-08-19T00:53:02;100553.78;;;18.74;100.00
4044;BME280;2036;51.578;7.108;2022-08-19T00:55:31;100546.59;;;18.75;100.00
4044;BME280;2036;51.578;7.108;2022-08-19T00:58:08;100549.63;;;18.72;100.00
4044;BME280;2036;51.578;7.108;2022-08-19T01:00:36;100547.47;;;18.67;100.00
4044;BME280;2036;51.578;7.108;2022-08-19T01:03:14;100556.78;;;18.63;100.00
4044;BME280;2036;51.578;7.108;2022-08-19T01:05:43;100545.16;;;18.64;100.00
4044;BME280;2036;51.578;7.108;2022-08-19T01:08:10;100548.31;;;18.60;100.00
4044;BME280;2036;51.578;7.108;2022-08-19T01:10:44;100544.84;;;18.59;100.00
4044;BME280;2036;51.578;7.108;2022-08-19T01:13:15;100537.50;;;18.61;100.00
4044;BME280;2036;51.578;7.108;2022-08-19T01:15:52;100535.22;;;18.58;100.00
4044;BME280;2036;51.578;7.108;2022-08-19T01:18:20;100535.69;;;18.54;100.00
4044;BME280;2036;51.578;7.108;2022-08-19T01:20:47;100539.22;;;18.46;100.00
4044;BME280;2036;51.578;7.108;2022-08-19T01:23:14;100543.84;;;18.44;100.00
4044;BME280;2036;51.578;7.108;2022-08-19T01:25:50;100551.00;;;18.43;100.00
4044;BME280;2036;51.578;7.108;2022-08-19T01:28:22;100552.47;;;18.38;100.00
4044;BME280;2036;51.578;7.108;2022-08-19T01:30:48;100552.47;;;18.38;100.00
4044;BME280;2036;51.578;7.108;2022-08-19T01:33:14;100555.31;;;18.36;100.00
4044;BME280;2036;51.578;7.108;2022-08-19T01:35:41;100556.81;;;18.31;100.00
4044;BME280;2036;51.578;7.108;2022-08-19T01:38:22;100552.66;;;18.28;100.00
4044;BME280;2036;51.578;7.108;2022-08-19T01:40:49;100551.50;;;18.31;100.00
4044;BME280;2036;51.578;7.108;2022-08-19T01:43:15;100547.34;;;18.28;100.00
4044;BME280;2036;51.578;7.108;2022-08-19T01:45:41;100551.16;;;18.26;100.00
4044;BME280;2036;51.578;7.108;2022-08-19T01:48:07;100543.69;;;18.21;100.00
4044;BME280;2036;51.578;7.108;2022-08-19T01:50:34;100548.34;;;18.19;100.00
4044;BME280;2036;51.578;7.108;2022-08-19T01:53:03;100547.16;;;18.14;100.00
4044;BME280;2036;51.578;7.108;2022-08-19T01:55:30;100540.38;;;18.11;100.00
4044;BME280;2036;51.578;7.108;2022-08-19T01:57:59;100540.72;;;18.08;100.00
4044;BME280;2036;51.578;7.108;2022-08-19T02:00:30;100535.56;;;18.15;100.00
4044;BME280;2036;51.578;7.108;2022-08-19T02:02:56;100541.72;;;18.15;100.00
4044;BME280;2036;51.578;7.108;2022-08-19T02:05:23;100540.69;;;18.16;100.00
4044;BME280;2036;51.578;7.108;2022-08-19T02:07:49;100543.53;;;18.15;100.00
4044;BME280;2036;51.578;7.108;2022-08-19T02:10:20;100541.53;;;18.17;100.00
4044;BME280;2036;51.578;7.108;2022-08-19T02:12:47;100546.38;;;18.13;100.00
4044;BME280;2036;51.578;7.108;2022-08-19T02:15:15;100546.88;;;18.09;100.00
4044;BME280;2036;51.578;7.108;2022-08-19T02:17:42;100532.25;;;18.05;100.00
4044;BME280;2036;51.578;7.108;2022-08-19T02:20:09;100531.59;;;18.03;100.00
4044;BME280;2036;51.578;7.108;2022-08-19T02:22:35;100526.09;;;18.04;100.00
4044;BME280;2036;51.578;7.108;2022-08-19T02:25:02;100529.25;;;18.00;100.00
4044;BME280;2036;51.578;7.108;2022-08-19T02:27:29;100533.41;;;17.94;100.00
4044;BME280;2036;51.578;7.108;2022-08-19T02:29:56;100537.41;;;17.98;100.00
4044;BME280;2036;51.578;7.108;2022-08-19T02:32:22;100536.88;;;17.95;100.00
4044;BME280;2036;51.578;7.108;2022-08-19T02:34:48;100535.06;;;17.95;100.00
4044;BME280;2036;51.578;7.108;2022-08-19T02:37:14;100546.53;;;17.96;100.00
4044;BME280;2036;51.578;7.108;2022-08-19T02:39:58;100554.16;;;17.91;100.00
4044;BME280;2036;51.578;7.108;2022-08-19T02:42:25;100552.31;;;17.91;100.00
4044;BME280;2036;51.578;7.108;2022-08-19T02:44:51;100549.84;;;17.90;100.00
4044;BME280;2036;51.578;7.108;2022-08-19T02:47:20;100547.50;;;17.87;100.00
4044;BME280;2036;51.578;7.108;2022-08-19T02:49:46;100543.84;;;17.88;100.00
4044;BME280;2036;51.578;7.108;2022-08-19T02:52:15;100550.81;;;17.89;100.00
4044;BME280;2036;51.578;7.108;2022-08-19T02:54:41;100549.66;;;17.91;100.00
4044;BME280;2036;51.578;7.108;2022-08-19T02:57:07;100536.72;;;17.88;100.00
4044;BME280;2036;51.578;7.108;2022-08-19T02:59:33;100543.69;;;17.89;100.00
4044;BME280;2036;51.578;7.108;2022-08-19T03:01:59;100541.38;;;17.86;100.00
4044;BME280;2036;51.578;7.108;2022-08-19T03:04:25;100542.53;;;17.92;100.00
4044;BME280;2036;51.578;7.108;2022-08-19T03:06:51;100545.34;;;17.90;100.00
4044;BME280;2036;51.578;7.108;2022-08-19T03:09:19;100542.38;;;17.93;100.00
4044;BME280;2036;51.578;7.108;2022-08-19T03:11:46;100533.06;;;17.89;100.00
4044;BME280;2036;51.578;7.108;2022-08-19T03:14:12;100539.88;;;17.84;100.00
4044;BME280;2036;51.578;7.108;2022-08-19T03:16:48;100542.19;;;17.87;100.00
4044;BME280;2036;51.578;7.108;2022-08-19T03:19:18;100538.38;;;17.81;100.00
4044;BME280;2036;51.578;7.108;2022-08-19T03:21:44;100540.03;;;17.82;100.00
4044;BME280;2036;51.578;7.108;2022-08-19T03:24:12;100547.00;;;17.83;100.00
4044;BME280;2036;51.578;7.108;2022-08-19T03:26:42;100538.72;;;17.78;100.00
4044;BME280;2036;51.578;7.108;2022-08-19T03:29:09;100533.41;;;17.78;100.00
4044;BME280;2036;51.578;7.108;2022-08-19T03:31:38;100541.38;;;17.78;100.00
4044;BME280;2036;51.578;7.108;2022-08-19T03:34:05;100541.53;;;17.76;100.00
4044;BME280;2036;51.578;7.108;2022-08-19T03:36:31;100549.34;;;17.78;100.00
4044;BME280;2036;51.578;7.108;2022-08-19T03:38:59;100544.84;;;17.78;100.00
4044;BME280;2036;51.578;7.108;2022-08-19T03:41:31;100540.84;;;17.74;100.00
4044;BME280;2036;51.578;7.108;2022-08-19T03:43:58;100533.22;;;17.71;100.00
4044;BME280;2036;51.578;7.108;2022-08-19T03:46:28;100529.25;;;17.67;100.00
4044;BME280;2036;51.578;7.108;2022-08-19T03:48:57;100537.53;;;17.64;100.00
4044;BME280;2036;51.578;7.108;2022-08-19T03:51:32;100531.41;;;17.64;100.00
4044;BME280;2036;51.578;7.108;2022-08-19T03:54:02;100534.19;;;17.62;100.00
4044;BME280;2036;51.578;7.108;2022-08-19T03:56:29;100538.69;;;17.62;100.00
4044;BME280;2036;51.578;7.108;2022-08-19T03:58:58;100535.34;;;17.60;100.00
4044;BME280;2036;51.578;7.108;2022-08-19T04:01:28;100548.63;;;17.60;100.00
4044;BME280;2036;51.578;7.108;2022-08-19T04:03:56;100549.94;;;17.56;100.00
4044;BME280;2036;51.578;7.108;2022-08-19T04:06:27;100544.66;;;17.56;100.00
4044;BME280;2036;51.578;7.108;2022-08-19T04:08:54;100549.13;;;17.55;100.00
4044;BME280;2036;51.578;7.108;2022-08-19T04:11:25;100555.56;;;17.53;100.00
4044;BME280;2036;51.578;7.108;2022-08-19T04:13:53;100554.59;;;17.54;100.00
4044;BME280;2036;51.578;7.108;2022-08-19T04:16:22;100544.97;;;17.53;100.00
4044;BME280;2036;51.578;7.108;2022-08-19T04:18:49;100537.63;;;17.47;100.00
4044;BME280;2036;51.578;7.108;2022-08-19T04:21:25;100549.22;;;17.46;100.00
4044;BME280;2036;51.578;7.108;2022-08-19T04:23:52;100545.59;;;17.47;100.00
4044;BME280;2036;51.578;7.108;2022-08-19T04:26:25;100553.69;;;17.45;100.00
4044;BME280;2036;51.578;7.108;2022-08-19T04:28:51;100550.25;;;17.45;100.00
4044;BME280;2036;51.578;7.108;2022-08-19T04:31:24;100560.00;;;17.44;100.00
4044;BME280;2036;51.578;7.108;2022-08-19T04:33:58;100562.66;;;17.44;100.00
4044;BME280;2036;51.578;7.108;2022-08-19T04:36:28;100556.59;;;17.52;100.00
4044;BME280;2036;51.578;7.108;2022-08-19T04:38:57;100552.78;;;17.54;100.00
4044;BME280;2036;51.578;7.108;2022-08-19T04:41:24;100546.47;;;17.55;100.00
4044;BME280;2036;51.578;7.108;2022-08-19T04:44:09;100553.78;;;17.61;100.00
4044;BME280;2036;51.578;7.108;2022-08-19T04:46:36;100557.59;;;17.67;100.00
4044;BME280;2036;51.578;7.108;2022-08-19T04:49:04;100563.44;;;17.70;100.00
4044;BME280;2036;51.578;7.108;2022-08-19T04:51:32;100566.75;;;17.72;100.00
4044;BME280;2036;51.578;7.108;2022-08-19T04:53:58;100570.72;;;17.76;100.00
4044;BME280;2036;51.578;7.108;2022-08-19T04:56:26;100563.28;;;17.80;100.00
4044;BME280;2036;51.578;7.108;2022-08-19T04:58:54;100563.44;;;17.87;100.00
4044;BME280;2036;51.578;7.108;2022-08-19T05:01:27;100575.38;;;17.91;100.00
4044;BME280;2036;51.578;7.108;2022-08-19T05:03:54;100579.88;;;17.98;100.00
4044;BME280;2036;51.578;7.108;2022-08-19T05:06:23;100579.91;;;18.06;100.00
4044;BME280;2036;51.578;7.108;2022-08-19T05:08:49;100569.75;;;18.10;100.00
4044;BME280;2036;51.578;7.108;2022-08-19T05:11:20;100580.41;;;18.18;100.00
4044;BME280;2036;51.578;7.108;2022-08-19T05:13:47;100577.75;;;18.18;100.00
4044;BME280;2036;51.578;7.108;2022-08-19T05:16:19;100578.72;;;18.25;100.00
4044;BME280;2036;51.578;7.108;2022-08-19T05:18:47;100581.03;;;18.28;100.00
4044;BME280;2036;51.578;7.108;2022-08-19T05:21:33;100576.38;;;18.38;100.00
4044;BME280;2036;51.578;7.108;2022-08-19T05:24:21;100590.19;;;18.50;100.00
4044;BME280;2036;51.578;7.108;2022-08-19T05:26:51;100589.03;;;18.60;100.00
4044;BME280;2036;51.578;7.108;2022-08-19T05:29:20;100592.50;;;18.69;100.00
4044;BME280;2036;51.578;7.108;2022-08-19T05:31:48;100588.16;;;18.84;100.00
4044;BME280;2036;51.578;7.108;2022-08-19T05:34:19;100584.78;;;18.98;100.00
4044;BME280;2036;51.578;7.108;2022-08-19T05:36:49;100592.72;;;19.14;100.00
4044;BME280;2036;51.578;7.108;2022-08-19T05:39:19;100590.44;;;19.34;100.00
4044;BME280;2036;51.578;7.108;2022-08-19T05:41:51;100585.97;;;19.42;100.00
4044;BME280;2036;51.578;7.108;2022-08-19T05:44:18;100590.06;;;19.53;100.00
4044;BME280;2036;51.578;7.108;2022-08-19T05:46:47;100585.13;;;19.72;100.00
4044;BME280;2036;51.578;7.108;2022-08-19T05:49:15;100588.75;;;19.79;100.00
4044;BME280;2036;51.578;7.108;2022-08-19T05:51:42;100591.19;;;19.89;100.00
4044;BME280;2036;51.578;7.108;2022-08-19T05:54:08;100580.28;;;19.99;100.00
4044;BME280;2036;51.578;7.108;2022-08-19T05:56:35;100596.19;;;20.07;100.00
4044;BME280;2036;51.578;7.108;2022-08-19T05:59:05;100597.63;;;20.17;100.00
4044;BME280;2036;51.578;7.108;2022-08-19T06:01:37;100591.13;;;20.20;100.00
4044;BME280;2036;51.578;7.108;2022-08-19T06:04:03;100580.78;;;20.25;100.00
4044;BME280;2036;51.578;7.108;2022-08-19T06:06:29;100588.03;;;20.31;100.00
4044;BME280;2036;51.578;7.108;2022-08-19T06:08:55;100578.66;;;20.35;100.00
4044;BME280;2036;51.578;7.108;2022-08-19T06:11:35;100577.78;;;20.42;100.00
4044;BME280;2036;51.578;7.108;2022-08-19T06:14:05;100587.91;;;20.47;100.00
4044;BME280;2036;51.578;7.108;2022-08-19T06:16:35;100583.88;;;20.51;100.00
4044;BME280;2036;51.578;7.108;2022-08-19T06:19:05;100576.63;;;20.60;100.00
4044;BME280;2036;51.578;7.108;2022-08-19T06:21:33;100583.22;;;20.64;100.00
4044;BME280;2036;51.578;7.108;2022-08-19T06:23:59;100579.66;;;20.71;100.00
4044;BME280;2036;51.578;7.108;2022-08-19T06:26:26;100581.63;;;20.77;100.00
4044;BME280;2036;51.578;7.108;2022-08-19T06:28:52;100587.03;;;20.84;100.00
4044;BME280;2036;51.578;7.108;2022-08-19T06:31:27;100577.94;;;20.93;100.00
4044;BME280;2036;51.578;7.108;2022-08-19T06:33:53;100578.22;;;20.98;100.00
4044;BME280;2036;51.578;7.108;2022-08-19T06:36:25;100582.16;;;21.02;100.00
4044;BME280;2036;51.578;7.108;2022-08-19T06:38:58;100581.91;;;21.11;100.00
4044;BME280;2036;51.578;7.108;2022-08-19T06:41:25;100587.53;;;21.17;100.00
4044;BME280;2036;51.578;7.108;2022-08-19T06:43:52;100592.13;;;21.23;100.00
4044;BME280;2036;51.578;7.108;2022-08-19T06:46:18;100574.91;;;21.25;100.00
4044;BME280;2036;51.578;7.108;2022-08-19T06:48:46;100572.69;;;21.29;100.00
4044;BME280;2036;51.578;7.108;2022-08-19T06:51:15;100578.31;;;21.34;100.00
4044;BME280;2036;51.578;7.108;2022-08-19T06:53:46;100580.59;;;21.37;100.00
4044;BME280;2036;51.578;7.108;2022-08-19T06:56:19;100581.22;;;21.39;100.00
4044;BME280;2036;51.578;7.108;2022-08-19T06:58:58;100584.34;;;21.42;100.00
4044;BME280;2036;51.578;7.108;2022-08-19T07:01:24;100578.25;;;21.48;100.00
4044;BME280;2036;51.578;7.108;2022-08-19T07:03:49;100585.06;;;21.51;100.00
4044;BME280;2036;51.578;7.108;2022-08-19T07:06:18;100584.50;;;21.55;100.00
4044;BME280;2036;51.578;7.108;2022-08-19T07:08:47;100580.47;;;21.59;100.00
4044;BME280;2036;51.578;7.108;2022-08-19T07:11:16;100584.84;;;21.67;100.00
4044;BME280;2036;51.578;7.108;2022-08-19T07:13:43;100583.47;;;21.71;100.00
4044;BME280;2036;51.578;7.108;2022-08-19T07:16:16;100583.31;;;21.79;100.00
4044;BME280;2036;51.578;7.108;2022-08-19T07:18:42;100587.56;;;21.88;100.00
4044;BME280;2036;51.578;7.108;2022-08-19T07:21:14;100587.13;;;22.06;100.00
4044;BME280;2036;51.578;7.108;2022-08-19T07:24:07;100590.81;;;22.26;100.00
4044;BME280;2036;51.578;7.108;2022-08-19T07:26:41;100596.19;;;22.54;100.00
4044;BME280;2036;51.578;7.108;2022-08-19T07:29:07;100594.53;;;22.80;100.00
4044;BME280;2036;51.578;7.108;2022-08-19T07:31:33;100594.31;;;23.09;100.00
4044;BME280;2036;51.578;7.108;2022-08-19T07:34:05;100601.31;;;23.45;100.00
4044;BME280;2036;51.578;7.108;2022-08-19T07:36:38;100591.75;;;23.83;100.00
4044;BME280;2036;51.578;7.108;2022-08-19T07:39:10;100594.72;;;24.27;100.00
4044;BME280;2036;51.578;7.108;2022-08-19T07:41:37;100600.50;;;24.64;100.00
4044;BME280;2036;51.578;7.108;2022-08-19T07:44:05;100615.75;;;25.02;100.00
4044;BME280;2036;51.578;7.108;2022-08-19T07:46:36;100611.34;;;25.34;100.00
4044;BME280;2036;51.578;7.108;2022-08-19T07:49:05;100608.75;;;25.59;100.00
4044;BME280;2036;51.578;7.108;2022-08-19T07:51:31;100613.13;;;25.91;100.00
4044;BME280;2036;51.578;7.108;2022-08-19T07:53:57;100618.78;;;26.21;100.00
4044;BME280;2036;51.578;7.108;2022-08-19T07:56:23;100620.97;;;26.55;100.00
4044;BME280;2036;51.578;7.108;2022-08-19T07:58:51;100616.88;;;26.77;100.00
4044;BME280;2036;51.578;7.108;2022-08-19T08:01:22;100621.41;;;27.01;100.00
4044;BME280;2036;51.578;7.108;2022-08-19T08:03:52;100626.06;;;27.12;100.00
4044;BME280;2036;51.578;7.108;2022-08-19T08:06:37;100636.41;;;27.34;100.00
4044;BME280;2036;51.578;7.108;2022-08-19T08:09:35;100631.44;;;27.67;100.00
4044;BME280;2036;51.578;7.108;2022-08-19T08:12:13;100637.84;;;27.84;100.00
4044;BME280;2036;51.578;7.108;2022-08-19T08:17:10;100645.97;;;28.14;100.00
4044;BME280;2036;51.578;7.108;2022-08-19T08:19:37;100639.31;;;28.28;100.00
4044;BME280;2036;51.578;7.108;2022-08-19T08:22:03;100644.53;;;28.53;100.00
4044;BME280;2036;51.578;7.108;2022-08-19T08:24:32;100640.69;;;28.72;100.00
4044;BME280;2036;51.578;7.108;2022-08-19T08:27:00;100646.72;;;28.97;100.00
4044;BME280;2036;51.578;7.108;2022-08-19T08:29:30;100639.03;;;29.17;100.00
4044;BME280;2036;51.578;7.108;2022-08-19T08:31:56;100644.44;;;29.40;100.00
4044;BME280;2036;51.578;7.108;2022-08-19T08:34:23;100644.03;;;30.00;100.00
4044;BME280;2036;51.578;7.108;2022-08-19T08:36:49;100641.75;;;30.25;100.00
4044;BME280;2036;51.578;7.108;2022-08-19T08:39:19;100654.78;;;30.56;100.00
4044;BME280;2036;51.578;7.108;2022-08-19T08:42:16;100655.75;;;30.67;100.00
4044;BME280;2036;51.578;7.108;2022-08-19T08:45:00;100649.69;;;30.76;100.00
4044;BME280;2036;51.578;7.108;2022-08-19T08:47:36;100656.00;;;31.15;100.00
4044;BME280;2036;51.578;7.108;2022-08-19T08:50:39;100647.88;;;31.37;100.00
4044;BME280;2036;51.578;7.108;2022-08-19T08:53:17;100649.66;;;31.69;100.00
4044;BME280;2036;51.578;7.108;2022-08-19T08:55:44;100647.09;;;31.85;100.00
4044;BME280;2036;51.578;7.108;2022-08-19T08:58:30;100646.69;;;32.19;100.00
4044;BME280;2036;51.578;7.108;2022-08-19T09:00:57;100648.50;;;32.40;100.00
4044;BME280;2036;51.578;7.108;2022-08-19T09:03:26;100656.75;;;32.51;100.00
4044;BME280;2036;51.578;7.108;2022-08-19T09:08:45;100653.16;;;31.92;92.71
4044;BME280;2036;51.578;7.108;2022-08-19T09:14:34;100653.38;;;31.03;97.99
4044;BME280;2036;51.578;7.108;2022-08-19T09:17:00;100647.31;;;30.80;96.18
4044;BME280;2036;51.578;7.108;2022-08-19T09:19:29;100640.59;;;30.66;96.74
4044;BME280;2036;51.578;7.108;2022-08-19T09:21:56;100648.81;;;30.54;96.81
4044;BME280;2036;51.578;7.108;2022-08-19T09:24:21;100651.06;;;30.45;98.16
4044;BME280;2036;51.578;7.108;2022-08-19T09:26:47;100649.03;;;30.69;97.51
4044;BME280;2036;51.578;7.108;2022-08-19T09:29:13;100642.88;;;30.90;98.81
4044;BME280;2036;51.578;7.108;2022-08-19T09:31:39;100651.81;;;31.07;99.18
4044;BME280;2036;51.578;7.108;2022-08-19T09:34:05;100655.81;;;31.22;94.50
4044;BME280;2036;51.578;7.108;2022-08-19T09:36:32;100650.28;;;30.95;96.37
4044;BME280;2036;51.578;7.108;2022-08-19T09:38:59;100648.94;;;30.97;91.55
4044;BME280;2036;51.578;7.108;2022-08-19T09:41:28;100648.41;;;31.17;100.00
4044;BME280;2036;51.578;7.108;2022-08-19T09:43:56;100647.16;;;31.25;93.34
4044;BME280;2036;51.578;7.108;2022-08-19T09:46:28;100650.75;;;31.08;95.43
4044;BME280;2036;51.578;7.108;2022-08-19T09:48:54;100651.00;;;30.74;88.16
4044;BME280;2036;51.578;7.108;2022-08-19T09:51:25;100659.28;;;30.67;92.91
4044;BME280;2036;51.578;7.108;2022-08-19T09:53:54;100649.84;;;30.86;93.01
4044;BME280;2036;51.578;7.108;2022-08-19T09:56:21;100647.69;;;31.05;94.16
4044;BME280;2036;51.578;7.108;2022-08-19T09:58:48;100651.06;;;31.12;89.30
4044;BME280;2036;51.578;7.108;2022-08-19T10:01:23;100646.03;;;31.42;91.83
4044;BME280;2036;51.578;7.108;2022-08-19T10:03:53;100645.91;;;31.75;92.37
4044;BME280;2036;51.578;7.108;2022-08-19T10:06:21;100635.72;;;32.09;88.54
4044;BME280;2036;51.578;7.108;2022-08-19T10:08:48;100640.88;;;32.37;88.04
4044;BME280;2036;51.578;7.108;2022-08-19T10:11:14;100633.31;;;32.44;82.68
4044;BME280;2036;51.578;7.108;2022-08-19T10:13:43;100645.75;;;32.67;81.92
4044;BME280;2036;51.578;7.108;2022-08-19T10:16:17;100644.47;;;32.80;76.37
4044;BME280;2036;51.578;7.108;2022-08-19T10:18:45;100646.41;;;32.84;74.74
4044;BME280;2036;51.578;7.108;2022-08-19T10:21:23;100654.50;;;32.74;75.12
4044;BME280;2036;51.578;7.108;2022-08-19T10:23:52;100639.53;;;32.72;78.91
4044;BME280;2036;51.578;7.108;2022-08-19T10:26:25;100631.47;;;32.87;78.30
4044;BME280;2036;51.578;7.108;2022-08-19T10:28:52;100632.81;;;32.84;73.27
4044;BME280;2036;51.578;7.108;2022-08-19T10:31:26;100634.88;;;33.04;74.93
4044;BME280;2036;51.578;7.108;2022-08-19T10:33:52;100629.34;;;32.94;72.19
4044;BME280;2036;51.578;7.108;2022-08-19T10:36:32;100635.97;;;33.08;75.15
4044;BME280;2036;51.578;7.108;2022-08-19T10:39:03;100629.72;;;33.07;70.53
4044;BME280;2036;51.578;7.108;2022-08-19T10:41:34;100627.53;;;33.04;72.60
4044;BME280;2036;51.578;7.108;2022-08-19T10:44:07;100627.44;;;32.94;71.20
4044;BME280;2036;51.578;7.108;2022-08-19T10:46:39;100630.66;;;32.86;69.41
4044;BME280;2036;51.578;7.108;2022-08-19T10:49:08;100631.38;;;32.72;73.43
4044;BME280;2036;51.578;7.108;2022-08-19T10:51:35;100631.72;;;32.49;74.82
4044;BME280;2036;51.578;7.108;2022-08-19T10:54:19;100630.50;;;32.34;76.63
4044;BME280;2036;51.578;7.108;2022-08-19T10:56:45;100627.56;;;32.09;72.45
4044;BME280;2036;51.578;7.108;2022-08-19T10:59:29;100632.09;;;31.77;72.26
4044;BME280;2036;51.578;7.108;2022-08-19T11:02:00;100641.72;;;31.63;71.98
4044;BME280;2036;51.578;7.108;2022-08-19T11:04:26;100634.44;;;31.47;77.05
4044;BME280;2036;51.578;7.108;2022-08-19T11:06:52;100631.25;;;31.11;71.67
4044;BME280;2036;51.578;7.108;2022-08-19T11:09:23;100634.88;;;30.84;73.60
4044;BME280;2036;51.578;7.108;2022-08-19T11:11:51;100629.31;;;30.90;75.15
4044;BME280;2036;51.578;7.108;2022-08-19T11:14:20;100637.50;;;31.12;73.58
4044;BME280;2036;51.578;7.108;2022-08-19T11:16:47;100643.81;;;31.56;81.64
4044;BME280;2036;51.578;7.108;2022-08-19T11:19:14;100640.84;;;32.06;75.46
4044;BME280;2036;51.578;7.108;2022-08-19T11:21:47;100631.72;;;32.49;76.15
4044;BME280;2036;51.578;7.108;2022-08-19T11:24:20;100627.78;;;32.61;73.06
4044;BME280;2036;51.578;7.108;2022-08-19T11:26:50;100633.31;;;32.44;69.92
4044;BME280;2036;51.578;7.108;2022-08-19T11:29:18;100638.53;;;32.19;66.18
4044;BME280;2036;51.578;7.108;2022-08-19T11:31:48;100638.59;;;31.98;64.18
4044;BME280;2036;51.578;7.108;2022-08-19T11:34:25;100625.91;;;32.03;73.54
4044;BME280;2036;51.578;7.108;2022-08-19T11:36:53;100623.00;;;32.15;68.69
4044;BME280;2036;51.578;7.108;2022-08-19T11:39:22;100626.34;;;32.27;64.79
4044;BME280;2036;51.578;7.108;2022-08-19T11:41:48;100622.59;;;32.60;73.36
4044;BME280;2036;51.578;7.108;2022-08-19T11:44:14;100616.81;;;32.88;68.85
4044;BME280;2036;51.578;7.108;2022-08-19T11:46:42;100621.47;;;33.49;73.18
4044;BME280;2036;51.578;7.108;2022-08-19T11:49:14;100616.97;;;33.75;62.92
4044;BME280;2036;51.578;7.108;2022-08-19T11:51:41;100614.75;;;33.67;62.07
4044;BME280;2036;51.578;7.108;2022-08-19T11:54:10;100607.44;;;33.72;61.51
4044;BME280;2036;51.578;7.108;2022-08-19T11:56:37;100608.81;;;33.90;64.18
4044;BME280;2036;51.578;7.108;2022-08-19T11:59:04;100607.50;;;34.18;66.08
4044;BME280;2036;51.578;7.108;2022-08-19T12:01:30;100609.69;;;34.51;68.36
4044;BME280;2036;51.578;7.108;2022-08-19T12:03:57;100612.69;;;34.45;58.26
4044;BME280;2036;51.578;7.108;2022-08-19T12:06:29;100611.00;;;33.98;54.15
4044;BME280;2036;51.578;7.108;2022-08-19T12:09:01;100605.88;;;34.32;63.13
4044;BME280;2036;51.578;7.108;2022-08-19T12:11:28;100607.78;;;34.47;55.06
4044;BME280;2036;51.578;7.108;2022-08-19T12:13:54;100615.97;;;34.31;51.94
4044;BME280;2036;51.578;7.108;2022-08-19T12:16:24;100615.69;;;34.23;53.80
4044;BME280;2036;51.578;7.108;2022-08-19T12:18:51;100610.50;;;34.21;54.78
4044;BME280;2036;51.578;7.108;2022-08-19T12:21:25;100606.94;;;34.46;54.40
4044;BME280;2036;51.578;7.108;2022-08-19T12:23:55;100596.53;;;34.88;54.45
4044;BME280;2036;51.578;7.108;2022-08-19T12:26:23;100594.41;;;34.80;48.78
4044;BME280;2036;51.578;7.108;2022-08-19T12:28:49;100600.63;;;35.06;50.68
4044;BME280;2036;51.578;7.108;2022-08-19T12:31:16;100589.97;;;34.99;52.87
4044;BME280;2036;51.578;7.108;2022-08-19T12:33:42;100588.94;;;34.80;48.96
4044;BME280;2036;51.578;7.108;2022-08-19T12:36:12;100587.31;;;34.39;48.54
4044;BME280;2036;51.578;7.108;2022-08-19T12:38:39;100596.06;;;34.11;48.11
4044;BME280;2036;51.578;7.108;2022-08-19T12:41:06;100592.44;;;33.65;48.73
4044;BME280;2036;51.578;7.108;2022-08-19T12:43:35;100590.66;;;33.34;49.57
4044;BME280;2036;51.578;7.108;2022-08-19T12:46:02;100593.19;;;32.98;48.50
4044;BME280;2036;51.578;7.108;2022-08-19T12:48:30;100581.00;;;32.59;51.04
4044;BME280;2036;51.578;7.108;2022-08-19T12:50:56;100588.16;;;32.38;51.89
4044;BME280;2036;51.578;7.108;2022-08-19T12:53:22;100595.13;;;32.29;52.27
4044;BME280;2036;51.578;7.108;2022-08-19T12:55:56;100591.41;;;32.35;51.77
4044;BME280;2036;51.578;7.108;2022-08-19T12:58:22;100589.78;;;32.39;51.98
4044;BME280;2036;51.578;7.108;2022-08-19T13:00:49;100593.59;;;32.38;51.09
4044;BME280;2036;51.578;7.108;2022-08-19T13:03:15;100605.84;;;32.09;50.86
4044;BME280;2036;51.578;7.108;2022-08-19T13:05:41;100596.91;;;31.87;51.50
4044;BME280;2036;51.578;7.108;2022-08-19T13:08:07;100585.91;;;32.30;54.77
4044;BME280;2036;51.578;7.108;2022-08-19T13:10:35;100577.22;;;33.07;56.84
4044;BME280;2036;51.578;7.108;2022-08-19T13:13:07;100585.88;;;33.56;52.00
4044;BME280;2036;51.578;7.108;2022-08-19T13:15:38;100573.19;;;34.17;51.72
4044;BME280;2036;51.578;7.108;2022-08-19T13:18:08;100572.06;;;34.48;50.08
4044;BME280;2036;51.578;7.108;2022-08-19T13:20:36;100571.81;;;34.65;49.51
4044;BME280;2036;51.578;7.108;2022-08-19T13:23:03;100576.03;;;35.16;48.16